Time;durP1;ratioP1;P1;durP2;ratioP2;P2;SDS_P1;SDS_P2;PMS_P1;PMS_P2;Temp;Humidity;BMP_temperature;BMP_pressure;BME280_temperature;BME280_humidity;BME280_pressure;Samples;Min_cycle;Max_cycle;Signal;HPM_P1;HPM_P2
2023/06/01 00:00:09;;;;;;;;;8.00;7.00;;;;;;;;5060622;28;46106;-79
2023/06/01 00:02:35;;;;;;;;;9.67;5.67;;;;;;;;5060406;28;45268;-79
2023/06/01 00:05:00;;;;;;;;;8.00;8.00;;;;;;;;5059935;28;45342;-78
2023/06/01 00:07:25;;;;;;;;;7.00;7.00;;;;;;;;5058542;28;46038;-78
2023/06/01 00:09:50;;;;;;;;;7.33;7.33;;;;;;;;5060429;28;46584;-79
2023/06/01 00:12:16;;;;;;;;;9.00;9.00;;;;;;;;5060552;28;45582;-78
2023/06/01 00:14:41;;;;;;;;;6.33;6.33;;;;;;;;5060528;28;45307;-78
2023/06/01 00:17:07;;;;;;;;;6.33;5.00;;;;;;;;5060940;28;45612;-79
2023/06/01 00:19:34;;;;;;;;;8.00;7.67;;;;;;;;5060013;28;45375;-78
2023/06/01 00:21:59;;;;;;;;;8.00;8.00;;;;;;;;5059894;28;45441;-78
2023/06/01 00:24:25;;;;;;;;;10.67;8.00;;;;;;;;5060483;28;45342;-79
2023/06/01 00:26:51;;;;;;;;;7.67;7.67;;;;;;;;5058799;28;45898;-78
2023/06/01 00:29:16;;;;;;;;;10.67;10.67;;;;;;;;5059962;28;45993;-78
2023/06/01 00:31:41;;;;;;;;;15.00;10.67;;;;;;;;5060044;28;45303;-78
2023/06/01 00:34:07;;;;;;;;;12.67;10.33;;;;;;;;5058848;28;45322;-79
2023/06/01 00:36:32;;;;;;;;;10.67;9.33;;;;;;;;5060127;28;45445;-78
2023/06/01 00:39:01;;;;;;;;;10.00;9.00;;;;;;;;5058011;28;45481;-78
2023/06/01 00:41:27;;;;;;;;;8.33;8.33;;;;;;;;5060026;28;45240;-78
2023/06/01 00:43:52;;;;;;;;;11.00;11.00;;;;;;;;5060092;28;45302;-78
2023/06/01 00:46:18;;;;;;;;;9.00;8.33;;;;;;;;5058637;28;47372;-80
2023/06/01 00:48:43;;;;;;;;;9.00;8.67;;;;;;;;5059944;28;45228;-79
2023/06/01 00:51:08;;;;;;;;;9.00;9.00;;;;;;;;5059723;28;45311;-79
2023/06/01 00:53:34;;;;;;;;;8.00;8.00;;;;;;;;5059998;28;45291;-80
2023/06/01 00:55:59;;;;;;;;;9.00;9.00;;;;;;;;5060135;28;45451;-79
2023/06/01 00:58:24;;;;;;;;;7.67;7.67;;;;;;;;5058346;28;47045;-79
2023/06/01 01:00:53;;;;;;;;;10.33;9.33;;;;;;;;5059817;28;45224;-78
2023/06/01 01:03:18;;;;;;;;;9.33;8.33;;;;;;;;5059751;28;45322;-78
2023/06/01 01:05:44;;;;;;;;;11.00;10.67;;;;;;;;5059582;28;45415;-78
2023/06/01 01:08:27;;;;;;;;;11.00;10.00;;;;;;;;5059640;28;45291;-79
2023/06/01 01:10:59;;;;;;;;;10.67;10.67;;;;;;;;5059950;28;45413;-79
2023/06/01 01:13:30;;;;;;;;;9.67;9.33;;;;;;;;5059600;28;45456;-78
2023/06/01 01:15:59;;;;;;;;;9.00;9.00;;;;;;;;5061474;28;45552;-78
2023/06/01 01:18:35;;;;;;;;;14.67;12.00;;;;;;;;5062995;28;45275;-79
2023/06/01 01:21:01;;;;;;;;;8.33;8.33;;;;;;;;5063189;28;45287;-79
2023/06/01 01:23:45;;;;;;;;;10.00;10.00;;;;;;;;5061710;28;45346;-78
2023/06/01 01:26:23;;;;;;;;;9.67;8.67;;;;;;;;5061713;28;46275;-79
2023/06/01 01:28:53;;;;;;;;;10.00;9.00;;;;;;;;5063213;28;46378;-79
2023/06/01 01:31:22;;;;;;;;;11.00;11.00;;;;;;;;5063172;28;45380;-78
2023/06/01 01:33:47;;;;;;;;;12.33;11.00;;;;;;;;5063071;28;45279;-79
2023/06/01 01:36:12;;;;;;;;;9.33;9.33;;;;;;;;5063196;28;45379;-78
2023/06/01 01:38:38;;;;;;;;;11.33;10.33;;;;;;;;5062298;28;46171;-79
2023/06/01 01:41:04;;;;;;;;;10.67;8.00;;;;;;;;5061719;28;45948;-79
2023/06/01 01:43:30;;;;;;;;;10.00;10.00;;;;;;;;5063025;28;45283;-79
2023/06/01 01:46:22;;;;;;;;;10.33;10.33;;;;;;;;5061542;28;46453;-78
2023/06/01 01:48:50;;;;;;;;;9.67;8.00;;;;;;;;5053767;28;45474;-79
2023/06/01 01:51:19;;;;;;;;;10.00;10.00;;;;;;;;5062371;28;45304;-78
2023/06/01 01:53:45;;;;;;;;;12.00;11.33;;;;;;;;5062341;28;45400;-79
2023/06/01 01:56:11;;;;;;;;;11.00;10.00;;;;;;;;5062425;28;45449;-78
2023/06/01 01:58:37;;;;;;;;;12.67;11.67;;;;;;;;5062643;28;45261;-78
2023/06/01 02:01:03;;;;;;;;;12.33;11.67;;;;;;;;5062591;28;45250;-79
2023/06/01 02:03:28;;;;;;;;;12.67;11.67;;;;;;;;5062615;28;45307;-79
2023/06/01 02:05:53;;;;;;;;;9.67;9.00;;;;;;;;5062295;28;45199;-79
2023/06/01 02:08:18;;;;;;;;;12.33;11.00;;;;;;;;5062070;28;46333;-79
2023/06/01 02:10:44;;;;;;;;;12.00;11.67;;;;;;;;5060974;28;45291;-79
2023/06/01 02:13:09;;;;;;;;;14.00;12.00;;;;;;;;5061192;28;45251;-78
2023/06/01 02:15:34;;;;;;;;;12.33;12.33;;;;;;;;5060760;28;46023;-79
2023/06/01 02:18:00;;;;;;;;;12.33;11.33;;;;;;;;5062216;28;45417;-78
2023/06/01 02:20:25;;;;;;;;;17.33;13.00;;;;;;;;5060458;28;45395;-78
2023/06/01 02:22:50;;;;;;;;;11.67;11.67;;;;;;;;5062573;28;45239;-79
2023/06/01 02:25:16;;;;;;;;;11.33;11.33;;;;;;;;5062364;28;45231;-77
2023/06/01 02:27:41;;;;;;;;;13.33;13.00;;;;;;;;5060805;28;45280;-79
2023/06/01 02:30:07;;;;;;;;;13.33;12.33;;;;;;;;5061890;28;45278;-79
2023/06/01 02:32:32;;;;;;;;;19.00;14.67;;;;;;;;5060936;28;45393;-78
2023/06/01 02:34:58;;;;;;;;;13.67;12.33;;;;;;;;5060760;28;46806;-78
2023/06/01 02:37:23;;;;;;;;;17.67;16.33;;;;;;;;5061197;28;46291;-79
2023/06/01 02:39:48;;;;;;;;;14.00;13.67;;;;;;;;5061767;28;45356;-78
2023/06/01 02:42:13;;;;;;;;;16.67;15.33;;;;;;;;5062025;28;45444;-78
2023/06/01 02:44:38;;;;;;;;;16.00;14.67;;;;;;;;5060353;28;46368;-78
2023/06/01 02:47:04;;;;;;;;;16.33;15.00;;;;;;;;5061710;28;45432;-78
2023/06/01 02:49:29;;;;;;;;;15.67;15.67;;;;;;;;5061853;28;45400;-78
2023/06/01 02:51:55;;;;;;;;;18.33;18.00;;;;;;;;5061474;28;45232;-79
2023/06/01 02:54:20;;;;;;;;;22.00;20.00;;;;;;;;5061525;28;45410;-79
2023/06/01 02:56:45;;;;;;;;;18.00;18.00;;;;;;;;5059931;28;48117;-78
2023/06/01 02:59:10;;;;;;;;;17.33;17.33;;;;;;;;5061635;28;45331;-79
2023/06/01 03:01:36;;;;;;;;;24.33;22.33;;;;;;;;5061586;28;45286;-78
2023/06/01 03:04:03;;;;;;;;;17.00;16.67;;;;;;;;5061555;28;45330;-78
2023/06/01 03:06:31;;;;;;;;;18.33;18.00;;;;;;;;5059830;28;48538;-78
2023/06/01 03:08:56;;;;;;;;;24.00;20.33;;;;;;;;5061176;28;45301;-78
2023/06/01 03:11:22;;;;;;;;;19.33;18.67;;;;;;;;5061403;28;45323;-78
2023/06/01 03:13:47;;;;;;;;;19.00;17.33;;;;;;;;5061268;28;45326;-77
2023/06/01 03:16:12;;;;;;;;;18.33;17.67;;;;;;;;5061302;28;46058;-78
2023/06/01 03:18:37;;;;;;;;;21.67;21.00;;;;;;;;5061051;28;45379;-78
2023/06/01 03:21:02;;;;;;;;;23.00;22.67;;;;;;;;5061231;28;45364;-78
2023/06/01 03:23:29;;;;;;;;;19.67;19.00;;;;;;;;5059926;28;47030;-79
2023/06/01 03:25:55;;;;;;;;;23.67;21.33;;;;;;;;5061330;28;45434;-78
2023/06/01 03:28:20;;;;;;;;;23.00;23.00;;;;;;;;5061051;28;45341;-78
2023/06/01 03:30:46;;;;;;;;;23.00;19.67;;;;;;;;5061119;28;45280;-79
2023/06/01 03:33:11;;;;;;;;;25.00;23.67;;;;;;;;5061054;28;45406;-78
2023/06/01 03:35:37;;;;;;;;;23.33;21.67;;;;;;;;5060773;28;45340;-78
2023/06/01 03:38:02;;;;;;;;;20.00;20.00;;;;;;;;5059764;28;45307;-79
2023/06/01 03:40:27;;;;;;;;;23.00;22.67;;;;;;;;5060971;28;45212;-78
2023/06/01 03:42:52;;;;;;;;;26.00;24.33;;;;;;;;5059635;28;46151;-78
2023/06/01 03:45:18;;;;;;;;;22.67;21.00;;;;;;;;5060787;28;46419;-78
2023/06/01 03:47:43;;;;;;;;;23.33;21.33;;;;;;;;5060864;28;45176;-79
2023/06/01 03:50:09;;;;;;;;;25.33;24.00;;;;;;;;5060757;28;45210;-78
2023/06/01 03:52:34;;;;;;;;;19.00;18.33;;;;;;;;5060439;28;45165;-78
2023/06/01 03:55:04;;;;;;;;;23.00;22.00;;;;;;;;5060740;28;45939;-78
2023/06/01 03:57:30;;;;;;;;;23.67;23.67;;;;;;;;5060642;28;45287;-78
2023/06/01 03:59:55;;;;;;;;;25.67;24.33;;;;;;;;5060603;28;45445;-78
2023/06/01 04:02:21;;;;;;;;;26.00;24.67;;;;;;;;5060502;28;45412;-79
2023/06/01 04:04:47;;;;;;;;;29.67;27.00;;;;;;;;5060525;28;45437;-78
2023/06/01 04:07:14;;;;;;;;;27.00;25.67;;;;;;;;5058645;28;45331;-78
2023/06/01 04:09:43;;;;;;;;;31.00;26.67;;;;;;;;5059069;28;45309;-79
2023/06/01 04:12:09;;;;;;;;;30.00;25.67;;;;;;;;5058962;28;46037;-78
2023/06/01 04:14:35;;;;;;;;;29.00;26.33;;;;;;;;5060168;28;46171;-78
2023/06/01 04:17:00;;;;;;;;;28.00;24.67;;;;;;;;5059676;28;45316;-78
2023/06/01 04:19:25;;;;;;;;;32.00;30.00;;;;;;;;5058213;28;45691;-78
2023/06/01 04:21:50;;;;;;;;;29.33;26.67;;;;;;;;5059638;28;45433;-78
2023/06/01 04:24:16;;;;;;;;;30.00;29.00;;;;;;;;5060136;28;45236;-78
2023/06/01 04:26:41;;;;;;;;;55.75;44.75;;;;;;;;5060077;28;45308;-78
2023/06/01 04:29:08;;;;;;;;;57.25;45.00;;;;;;;;5060224;28;45277;-79
2023/06/01 04:31:34;;;;;;;;;43.50;37.25;;;;;;;;5060062;28;45293;-78
2023/06/01 04:34:01;;;;;;;;;40.67;32.67;;;;;;;;5059829;28;45967;-79
2023/06/01 04:36:28;;;;;;;;;35.33;30.33;;;;;;;;5059960;28;45251;-78
2023/06/01 04:38:54;;;;;;;;;42.00;32.33;;;;;;;;5059298;28;45260;-78
2023/06/01 04:41:22;;;;;;;;;42.00;33.67;;;;;;;;5058501;28;46255;-79
2023/06/01 04:43:54;;;;;;;;;61.00;46.00;;;;;;;;5059694;28;46402;-78
2023/06/01 04:46:24;;;;;;;;;47.25;39.00;;;;;;;;5059727;28;45310;-78
2023/06/01 04:48:51;;;;;;;;;46.75;38.25;;;;;;;;5058458;28;45280;-79
2023/06/01 04:51:19;;;;;;;;;54.75;42.00;;;;;;;;5058780;28;45254;-77
2023/06/01 04:53:44;;;;;;;;;62.00;47.50;;;;;;;;5061303;28;46291;-76
2023/06/01 04:56:10;;;;;;;;;44.25;36.00;;;;;;;;5067729;28;45306;-77
2023/06/01 04:58:35;;;;;;;;;34.67;31.00;;;;;;;;5071300;28;45325;-81
2023/06/01 05:01:01;;;;;;;;;39.33;30.33;;;;;;;;5062676;28;45376;-79
2023/06/01 05:03:26;;;;;;;;;31.50;28.50;;;;;;;;5058413;28;47081;-80
2023/06/01 05:05:51;;;;;;;;;37.33;31.67;;;;;;;;5061522;28;45275;-80
2023/06/01 05:08:17;;;;;;;;;47.00;39.33;;;;;;;;5064613;28;45248;-79
2023/06/01 05:10:42;;;;;;;;;62.00;48.75;;;;;;;;5058702;28;45950;-79
2023/06/01 05:13:07;;;;;;;;;34.33;31.67;;;;;;;;5046175;28;45304;-80
2023/06/01 05:15:32;;;;;;;;;34.00;31.00;;;;;;;;5064711;28;45394;-78
2023/06/01 05:17:58;;;;;;;;;62.75;49.75;;;;;;;;5059709;28;45534;-77
2023/06/01 05:20:23;;;;;;;;;34.67;31.67;;;;;;;;5059071;28;45307;-78
2023/06/01 05:22:48;;;;;;;;;38.67;33.00;;;;;;;;5059280;28;46483;-78
2023/06/01 05:25:13;;;;;;;;;31.00;30.00;;;;;;;;5059076;28;45899;-78
2023/06/01 05:27:39;;;;;;;;;35.67;31.33;;;;;;;;5059605;28;45294;-81
2023/06/01 05:30:05;;;;;;;;;36.33;32.67;;;;;;;;5057601;28;46574;-79
2023/06/01 05:32:30;;;;;;;;;36.00;31.67;;;;;;;;5059279;28;45403;-79
2023/06/01 05:34:55;;;;;;;;;36.33;32.33;;;;;;;;5053729;28;46314;-80
2023/06/01 05:37:21;;;;;;;;;38.00;32.00;;;;;;;;5038892;28;45444;-80
2023/06/01 05:39:46;;;;;;;;;43.33;36.33;;;;;;;;5037535;28;47228;-79
2023/06/01 05:42:11;;;;;;;;;58.00;46.50;;;;;;;;5037729;28;48424;-79
2023/06/01 05:44:36;;;;;;;;;46.50;39.00;;;;;;;;5038830;28;45338;-79
2023/06/01 05:47:01;;;;;;;;;45.00;38.00;;;;;;;;5037648;28;45213;-79
2023/06/01 05:49:31;;;;;;;;;56.75;45.00;;;;;;;;5038981;28;45265;-79
2023/06/01 05:51:56;;;;;;;;;29.33;28.00;;;;;;;;5038739;28;45336;-79
2023/06/01 05:54:21;;;;;;;;;42.00;33.00;;;;;;;;5038847;28;45346;-79
2023/06/01 05:56:46;;;;;;;;;31.33;29.33;;;;;;;;5039045;28;45294;-78
2023/06/01 05:59:11;;;;;;;;;34.33;30.00;;;;;;;;5046630;28;45562;-81
2023/06/01 06:01:36;;;;;;;;;31.00;29.67;;;;;;;;5050800;28;46592;-79
2023/06/01 06:04:02;;;;;;;;;30.67;28.67;;;;;;;;5055416;28;45441;-82
2023/06/01 06:06:27;;;;;;;;;33.33;30.00;;;;;;;;5061818;28;45314;-78
2023/06/01 06:08:52;;;;;;;;;38.67;32.00;;;;;;;;5063232;28;45307;-79
2023/06/01 06:11:26;;;;;;;;;41.33;34.33;;;;;;;;5061988;28;46152;-80
2023/06/01 06:14:09;;;;;;;;;29.67;28.00;;;;;;;;5061658;28;45347;-78
2023/06/01 06:16:34;;;;;;;;;34.00;30.67;;;;;;;;5061054;28;45468;-79
2023/06/01 06:18:59;;;;;;;;;31.00;27.67;;;;;;;;5061976;28;45410;-80
2023/06/01 06:21:24;;;;;;;;;31.00;29.00;;;;;;;;5061883;28;45425;-78
2023/06/01 06:23:49;;;;;;;;;65.00;53.75;;;;;;;;5061693;28;45299;-79
2023/06/01 06:26:15;;;;;;;;;48.33;39.00;;;;;;;;5060869;28;45350;-78
2023/06/01 06:28:40;;;;;;;;;32.67;29.00;;;;;;;;5061812;28;45519;-80
2023/06/01 06:31:05;;;;;;;;;45.50;38.75;;;;;;;;5060592;28;46924;-80
2023/06/01 06:33:30;;;;;;;;;59.50;47.00;;;;;;;;5060489;28;45378;-79
2023/06/01 06:35:55;;;;;;;;;33.00;29.00;;;;;;;;5062283;28;45536;-79
2023/06/01 06:38:21;;;;;;;;;83.25;74.25;;;;;;;;5061196;28;45558;-77
2023/06/01 06:40:46;;;;;;;;;76.25;66.25;;;;;;;;5060261;28;47565;-79
2023/06/01 06:43:13;;;;;;;;;92.25;88.00;;;;;;;;5061761;28;45233;-77
2023/06/01 06:45:38;;;;;;;;;44.33;36.67;;;;;;;;5061837;28;45274;-76
2023/06/01 06:48:03;;;;;;;;;33.33;29.67;;;;;;;;5061416;28;45308;-76
2023/06/01 06:50:29;;;;;;;;;34.67;31.33;;;;;;;;5061416;28;46341;-76
2023/06/01 06:52:54;;;;;;;;;30.67;27.67;;;;;;;;5061520;28;45280;-77
2023/06/01 06:55:20;;;;;;;;;38.00;30.00;;;;;;;;5061616;28;45337;-76
2023/06/01 06:57:45;;;;;;;;;65.25;51.00;;;;;;;;5061482;28;45252;-75
2023/06/01 07:00:14;;;;;;;;;36.33;30.33;;;;;;;;5061188;28;46408;-75
2023/06/01 07:02:40;;;;;;;;;27.67;27.00;;;;;;;;5060101;28;45893;-75
2023/06/01 07:05:05;;;;;;;;;29.00;27.67;;;;;;;;5061500;28;45363;-76
2023/06/01 07:07:31;;;;;;;;;25.33;25.00;;;;;;;;5061008;28;45609;-76
2023/06/01 07:09:56;;;;;;;;;77.25;70.50;;;;;;;;5059599;28;47496;-76
2023/06/01 07:12:21;;;;;;;;;44.00;36.33;;;;;;;;5057007;28;45449;-76
2023/06/01 07:14:47;;;;;;;;;39.33;34.00;;;;;;;;5057875;28;45355;-75
2023/06/01 07:17:12;;;;;;;;;37.00;30.00;;;;;;;;5059291;28;46073;-77
2023/06/01 07:19:37;;;;;;;;;26.67;25.33;;;;;;;;5060563;28;45455;-75
2023/06/01 07:22:02;;;;;;;;;28.67;27.33;;;;;;;;5058898;28;45306;-75
2023/06/01 07:24:27;;;;;;;;;27.67;26.33;;;;;;;;5061024;28;45446;-75
2023/06/01 07:26:53;;;;;;;;;24.00;21.67;;;;;;;;5060930;28;45694;-78
2023/06/01 07:29:19;;;;;;;;;24.67;23.67;;;;;;;;5060938;28;46339;-75
2023/06/01 07:31:44;;;;;;;;;22.33;22.33;;;;;;;;5059721;28;45244;-78
2023/06/01 07:34:09;;;;;;;;;26.67;25.00;;;;;;;;5061226;28;45356;-76
2023/06/01 07:36:36;;;;;;;;;20.33;18.67;;;;;;;;5059060;28;46986;-76
2023/06/01 07:39:02;;;;;;;;;21.33;19.67;;;;;;;;5058922;28;48249;-74
2023/06/01 07:41:27;;;;;;;;;30.00;28.33;;;;;;;;5060863;28;45248;-75
2023/06/01 07:43:52;;;;;;;;;20.67;18.67;;;;;;;;5061005;28;45291;-75
2023/06/01 07:46:18;;;;;;;;;25.00;23.33;;;;;;;;5060771;28;45530;-76
2023/06/01 07:48:43;;;;;;;;;26.00;22.33;;;;;;;;5060564;28;46310;-75
2023/06/01 07:51:08;;;;;;;;;26.33;25.67;;;;;;;;5058178;28;45302;-76
2023/06/01 07:53:35;;;;;;;;;57.50;44.75;;;;;;;;5059077;28;45303;-75
2023/06/01 07:56:01;;;;;;;;;23.33;22.67;;;;;;;;5060502;28;45302;-75
2023/06/01 07:58:26;;;;;;;;;35.33;30.33;;;;;;;;5058908;28;47130;-75
2023/06/01 08:00:51;;;;;;;;;23.33;22.00;;;;;;;;5060490;28;45358;-76
2023/06/01 08:03:17;;;;;;;;;24.00;23.67;;;;;;;;5060740;28;45700;-75
2023/06/01 08:05:44;;;;;;;;;19.67;18.67;;;;;;;;5060314;28;45239;-75
2023/06/01 08:08:10;;;;;;;;;21.33;19.33;;;;;;;;5060265;28;45319;-73
2023/06/01 08:10:35;;;;;;;;;19.33;18.67;;;;;;;;5055865;28;45438;-74
2023/06/01 08:13:02;;;;;;;;;23.00;21.00;;;;;;;;5043832;28;45412;-75
2023/06/01 08:15:28;;;;;;;;;18.67;18.67;;;;;;;;5040091;28;45266;-75
2023/06/01 08:17:53;;;;;;;;;28.00;23.67;;;;;;;;5040034;28;45371;-76
2023/06/01 08:20:22;;;;;;;;;18.67;18.00;;;;;;;;5039766;28;45205;-74
2023/06/01 08:22:48;;;;;;;;;20.00;19.00;;;;;;;;5038854;28;45360;-75
2023/06/01 08:25:14;;;;;;;;;19.00;19.00;;;;;;;;5040025;28;45214;-74
2023/06/01 08:27:40;;;;;;;;;16.00;15.00;;;;;;;;5039774;28;45795;-74
2023/06/01 08:30:06;;;;;;;;;15.67;15.00;;;;;;;;5054870;28;45275;-74
2023/06/01 08:32:32;;;;;;;;;18.00;17.00;;;;;;;;5060176;28;45287;-74
2023/06/01 08:34:57;;;;;;;;;25.33;24.00;;;;;;;;5059910;28;45220;-74
2023/06/01 08:37:22;;;;;;;;;21.00;20.33;;;;;;;;5059405;28;45513;-75
2023/06/01 08:39:47;;;;;;;;;19.67;19.00;;;;;;;;5059736;28;45256;-75
2023/06/01 08:42:13;;;;;;;;;15.00;15.00;;;;;;;;5058671;28;45236;-75
2023/06/01 08:44:39;;;;;;;;;26.33;21.33;;;;;;;;5059876;28;45569;-75
2023/06/01 08:47:05;;;;;;;;;25.67;22.67;;;;;;;;5058385;28;47552;-75
2023/06/01 08:49:31;;;;;;;;;18.00;17.67;;;;;;;;5059833;28;45365;-74
2023/06/01 08:51:57;;;;;;;;;16.33;15.33;;;;;;;;5059809;28;45292;-76
2023/06/01 08:54:22;;;;;;;;;20.33;19.00;;;;;;;;5059675;28;45471;-75
2023/06/01 08:56:47;;;;;;;;;17.00;17.00;;;;;;;;5059568;28;45405;-74
2023/06/01 08:59:13;;;;;;;;;20.00;17.00;;;;;;;;5059625;28;45366;-75
2023/06/01 09:01:39;;;;;;;;;17.67;16.33;;;;;;;;5058524;28;45355;-74
2023/06/01 09:04:04;;;;;;;;;19.33;18.00;;;;;;;;5058026;28;45947;-74
2023/06/01 09:06:29;;;;;;;;;39.67;32.33;;;;;;;;5059098;28;45273;-74
2023/06/01 09:08:55;;;;;;;;;15.67;15.00;;;;;;;;5059696;28;45237;-75
2023/06/01 09:11:20;;;;;;;;;16.00;16.00;;;;;;;;5059807;28;45369;-74
2023/06/01 09:13:45;;;;;;;;;21.33;20.00;;;;;;;;5059533;28;45335;-73
2023/06/01 09:16:11;;;;;;;;;16.33;13.67;;;;;;;;5059304;28;46340;-75
2023/06/01 09:18:36;;;;;;;;;16.00;15.67;;;;;;;;5059373;28;45338;-76
2023/06/01 09:21:12;;;;;;;;;15.67;15.67;;;;;;;;5059532;28;45333;-74
2023/06/01 09:23:42;;;;;;;;;14.67;14.67;;;;;;;;5059216;28;45551;-75
2023/06/01 09:26:08;;;;;;;;;17.67;16.00;;;;;;;;5059219;28;46382;-75
2023/06/01 09:28:53;;;;;;;;;16.33;16.00;;;;;;;;5058857;28;45274;-76
2023/06/01 09:31:44;;;;;;;;;16.00;15.00;;;;;;;;5059396;28;45207;-75
2023/06/01 09:34:11;;;;;;;;;16.67;16.33;;;;;;;;5055575;28;46570;-74
2023/06/01 09:36:37;;;;;;;;;15.33;15.00;;;;;;;;5060363;28;45797;-75
2023/06/01 09:39:03;;;;;;;;;16.00;15.00;;;;;;;;5062317;28;45432;-75
2023/06/01 09:41:43;;;;;;;;;15.00;14.67;;;;;;;;5061433;28;45271;-74
2023/06/01 09:44:08;;;;;;;;;15.67;14.00;;;;;;;;5050136;28;45485;-75
2023/06/01 09:46:45;;;;;;;;;12.00;12.00;;;;;;;;5040778;28;47582;-75
2023/06/01 09:49:10;;;;;;;;;16.00;15.00;;;;;;;;5042475;28;45557;-75
2023/06/01 09:51:35;;;;;;;;;13.33;13.33;;;;;;;;5042169;28;45464;-75
2023/06/01 09:54:00;;;;;;;;;15.33;13.67;;;;;;;;5043117;28;45403;-74
2023/06/01 09:56:26;;;;;;;;;13.33;13.00;;;;;;;;5054627;28;46959;-74
2023/06/01 09:58:58;;;;;;;;;13.33;12.67;;;;;;;;5062374;28;45322;-74
2023/06/01 10:01:23;;;;;;;;;13.00;13.00;;;;;;;;5062580;28;45387;-74
2023/06/01 10:03:53;;;;;;;;;73.50;68.00;;;;;;;;5062218;28;45374;-75
2023/06/01 10:06:18;;;;;;;;;24.33;21.67;;;;;;;;5061997;28;46450;-74
2023/06/01 10:08:44;;;;;;;;;22.00;18.67;;;;;;;;5062104;28;45358;-75
2023/06/01 10:11:09;;;;;;;;;56.67;44.00;;;;;;;;5062459;28;45280;-74
2023/06/01 10:13:35;;;;;;;;;17.00;15.00;;;;;;;;5061886;28;45196;-75
2023/06/01 10:16:00;;;;;;;;;24.00;23.67;;;;;;;;5060679;28;47949;-75
2023/06/01 10:18:26;;;;;;;;;70.25;61.50;;;;;;;;5059975;28;45900;-75
2023/06/01 10:20:51;;;;;;;;;91.25;86.00;;;;;;;;5061997;28;45223;-75
2023/06/01 10:23:16;;;;;;;;;51.33;41.33;;;;;;;;5060452;28;45457;-74
2023/06/01 10:25:43;;;;;;;;;28.00;25.33;;;;;;;;5061977;28;46117;-75
2023/06/01 10:28:10;;;;;;;;;47.00;39.00;;;;;;;;5062021;28;45344;-75
2023/06/01 10:30:35;;;;;;;;;63.50;48.00;;;;;;;;5061796;28;45421;-75
2023/06/01 10:33:01;;;;;;;;;36.67;30.33;;;;;;;;5061702;28;45374;-74
2023/06/01 10:35:26;;;;;;;;;12.67;12.00;;;;;;;;5060251;28;47362;-75
2023/06/01 10:38:06;;;;;;;;;11.67;11.67;;;;;;;;5060251;28;45335;-76
2023/06/01 10:40:37;;;;;;;;;16.00;14.67;;;;;;;;5061850;28;45192;-75
2023/06/01 10:43:03;;;;;;;;;24.33;23.67;;;;;;;;5061624;28;45318;-76
2023/06/01 10:45:41;;;;;;;;;12.33;12.33;;;;;;;;5061496;28;46380;-75
2023/06/01 10:48:07;;;;;;;;;13.33;13.33;;;;;;;;5060298;28;45299;-75
2023/06/01 10:50:33;;;;;;;;;11.67;11.67;;;;;;;;5061674;28;45259;-77
2023/06/01 10:53:18;;;;;;;;;11.00;11.00;;;;;;;;5061307;28;45387;-75
2023/06/01 10:55:44;;;;;;;;;14.00;12.33;;;;;;;;5057550;28;47607;-74
2023/06/01 10:58:22;;;;;;;;;51.33;41.67;;;;;;;;5061298;28;45240;-75
2023/06/01 11:00:48;;;;;;;;;26.33;24.67;;;;;;;;5060666;28;45492;-75
2023/06/01 11:03:13;;;;;;;;;12.33;12.00;;;;;;;;5052966;28;45446;-74
2023/06/01 11:05:40;;;;;;;;;12.00;10.00;;;;;;;;5043596;28;45369;-76
2023/06/01 11:08:06;;;;;;;;;11.67;10.67;;;;;;;;5060786;28;45357;-75
2023/06/01 11:10:50;;;;;;;;;32.00;27.33;;;;;;;;5061094;28;45327;-75
2023/06/01 11:13:19;;;;;;;;;12.33;11.67;;;;;;;;5059723;28;46180;-76
2023/06/01 11:16:02;;;;;;;;;14.33;13.00;;;;;;;;5060985;28;45342;-75
2023/06/01 11:18:41;;;;;;;;;13.67;13.00;;;;;;;;5059640;28;45231;-74
2023/06/01 11:21:07;;;;;;;;;25.67;25.67;;;;;;;;5060627;28;45331;-74
2023/06/01 11:23:33;;;;;;;;;9.67;9.67;;;;;;;;5059472;28;46134;-75
2023/06/01 11:25:59;;;;;;;;;12.33;11.00;;;;;;;;5060615;28;46374;-74
2023/06/01 11:28:25;;;;;;;;;13.00;13.00;;;;;;;;5060693;28;45387;-74
2023/06/01 11:30:51;;;;;;;;;11.00;11.00;;;;;;;;5060824;28;45320;-74
2023/06/01 11:33:16;;;;;;;;;16.00;15.33;;;;;;;;5060892;28;45269;-75
2023/06/01 11:35:42;;;;;;;;;13.00;13.00;;;;;;;;5059172;28;47821;-75
2023/06/01 11:38:07;;;;;;;;;11.33;11.00;;;;;;;;5060255;28;45349;-75
2023/06/01 11:40:32;;;;;;;;;12.67;12.67;;;;;;;;5060781;28;45413;-76
2023/06/01 11:42:57;;;;;;;;;10.00;9.33;;;;;;;;5058600;28;46129;-74
2023/06/01 11:45:23;;;;;;;;;11.00;10.00;;;;;;;;5059170;28;46737;-75
2023/06/01 11:47:48;;;;;;;;;8.67;7.67;;;;;;;;5059089;28;45738;-74
2023/06/01 11:50:26;;;;;;;;;12.33;11.67;;;;;;;;5060532;28;45369;-74
2023/06/01 11:52:51;;;;;;;;;10.00;10.00;;;;;;;;5059984;28;45299;-74
2023/06/01 11:55:17;;;;;;;;;10.00;9.33;;;;;;;;5056822;28;45437;-75
2023/06/01 11:57:42;;;;;;;;;14.67;13.67;;;;;;;;5057302;28;45296;-74
2023/06/01 12:00:12;;;;;;;;;16.33;15.67;;;;;;;;5060113;28;45457;-74
2023/06/01 12:02:38;;;;;;;;;35.33;30.00;;;;;;;;5058981;28;45571;-74
2023/06/01 12:05:12;;;;;;;;;8.67;8.33;;;;;;;;5046955;28;46013;-75
2023/06/01 12:07:44;;;;;;;;;7.33;7.33;;;;;;;;5058532;28;45477;-74
2023/06/01 12:10:10;;;;;;;;;11.67;11.67;;;;;;;;5060200;28;45338;-75
2023/06/01 12:12:37;;;;;;;;;10.33;10.33;;;;;;;;5058420;28;46525;-74
2023/06/01 12:15:02;;;;;;;;;12.00;9.67;;;;;;;;5059631;28;46221;-74
2023/06/01 12:17:45;;;;;;;;;13.67;11.67;;;;;;;;5059789;28;45257;-74
2023/06/01 12:20:10;;;;;;;;;11.67;10.33;;;;;;;;5059947;28;45453;-74
2023/06/01 12:22:36;;;;;;;;;12.00;11.67;;;;;;;;5059635;28;45150;-74
2023/06/01 12:25:05;;;;;;;;;13.67;13.00;;;;;;;;5058023;28;47142;-76
2023/06/01 12:27:32;;;;;;;;;11.67;10.67;;;;;;;;5059786;28;45365;-75
2023/06/01 12:29:58;;;;;;;;;13.00;13.00;;;;;;;;5059374;28;45381;-75
2023/06/01 12:32:23;;;;;;;;;11.67;11.67;;;;;;;;5058237;28;46055;-75
2023/06/01 12:35:06;;;;;;;;;17.33;16.67;;;;;;;;5058399;28;47480;-76
2023/06/01 12:37:32;;;;;;;;;11.33;10.33;;;;;;;;5059499;28;45264;-74
2023/06/01 12:39:59;;;;;;;;;4.33;4.33;;;;;;;;5058784;28;45374;-74
2023/06/01 12:42:39;;;;;;;;;11.33;11.00;;;;;;;;5059907;28;45592;-78
2023/06/01 12:45:07;;;;;;;;;39.33;32.33;;;;;;;;5059797;28;46077;-74
2023/06/01 12:47:39;;;;;;;;;19.00;19.00;;;;;;;;5059873;28;45349;-75
2023/06/01 12:50:08;;;;;;;;;11.00;11.00;;;;;;;;5058478;28;45483;-75
2023/06/01 12:52:34;;;;;;;;;14.00;13.67;;;;;;;;5059490;28;45345;-78
2023/06/01 12:54:59;;;;;;;;;10.33;9.00;;;;;;;;5059701;28;45928;-78
2023/06/01 12:57:24;;;;;;;;;11.67;11.67;;;;;;;;5059742;28;45347;-76
2023/06/01 12:59:50;;;;;;;;;9.33;9.33;;;;;;;;5059930;28;45257;-75
2023/06/01 13:02:15;;;;;;;;;29.67;27.33;;;;;;;;5058308;28;46265;-77
2023/06/01 13:04:41;;;;;;;;;10.67;10.67;;;;;;;;5059610;28;45328;-77
2023/06/01 13:07:07;;;;;;;;;8.00;8.00;;;;;;;;5058110;28;45346;-74
2023/06/01 13:09:32;;;;;;;;;13.00;11.00;;;;;;;;5059660;28;45227;-76
2023/06/01 13:11:57;;;;;;;;;13.67;12.67;;;;;;;;5058763;28;45274;-75
2023/06/01 13:14:22;;;;;;;;;11.00;10.67;;;;;;;;5059543;28;46326;-76
2023/06/01 13:16:47;;;;;;;;;8.33;8.33;;;;;;;;5058093;28;45374;-75
2023/06/01 13:19:13;;;;;;;;;11.67;11.33;;;;;;;;5059757;28;45220;-77
2023/06/01 13:21:38;;;;;;;;;10.33;9.00;;;;;;;;5059183;28;45422;-77
2023/06/01 13:24:04;;;;;;;;;15.00;14.00;;;;;;;;5058068;28;47155;-76
2023/06/01 13:26:30;;;;;;;;;10.00;8.00;;;;;;;;5059404;28;45350;-78
2023/06/01 13:28:55;;;;;;;;;11.00;11.00;;;;;;;;5059213;28;45305;-77
2023/06/01 13:31:20;;;;;;;;;9.67;9.67;;;;;;;;5059409;28;45299;-75
2023/06/01 13:33:46;;;;;;;;;8.67;8.67;;;;;;;;5059230;28;45450;-76
2023/06/01 13:36:11;;;;;;;;;12.00;12.00;;;;;;;;5058844;28;45276;-77
2023/06/01 13:38:36;;;;;;;;;11.33;11.00;;;;;;;;5058915;28;45525;-77
2023/06/01 13:41:01;;;;;;;;;8.67;8.67;;;;;;;;5057794;28;46402;-76
2023/06/01 13:43:26;;;;;;;;;8.67;8.00;;;;;;;;5059163;28;46522;-74
2023/06/01 13:45:52;;;;;;;;;8.67;8.67;;;;;;;;5059312;28;45414;-75
2023/06/01 13:48:17;;;;;;;;;9.00;9.00;;;;;;;;5059359;28;45299;-75
2023/06/01 13:50:43;;;;;;;;;11.67;10.67;;;;;;;;5057554;28;47059;-75
2023/06/01 13:53:09;;;;;;;;;8.67;8.67;;;;;;;;5058813;28;46287;-75
2023/06/01 13:55:34;;;;;;;;;12.33;12.00;;;;;;;;5059099;28;45292;-76
2023/06/01 13:57:59;;;;;;;;;8.67;8.67;;;;;;;;5059117;28;45235;-75
2023/06/01 14:00:27;;;;;;;;;10.00;8.67;;;;;;;;5058928;28;45214;-77
2023/06/01 14:02:52;;;;;;;;;10.00;10.00;;;;;;;;5058803;28;45366;-75
2023/06/01 14:05:18;;;;;;;;;16.00;15.00;;;;;;;;5058789;28;45315;-76
2023/06/01 14:07:45;;;;;;;;;15.00;15.00;;;;;;;;5057483;28;45357;-76
2023/06/01 14:10:11;;;;;;;;;9.67;9.33;;;;;;;;5057299;28;46409;-75
2023/06/01 14:12:36;;;;;;;;;10.67;10.67;;;;;;;;5058724;28;45376;-77
2023/06/01 14:15:01;;;;;;;;;11.33;11.00;;;;;;;;5058891;28;45315;-75
2023/06/01 14:17:26;;;;;;;;;10.00;9.00;;;;;;;;5058979;28;45394;-74